Zaneta, Iowa
Current Conditions -  °F | °C
As of 7:54 PM on Thursday 20 Nov 2014 (Local Time) from KALO Reporting Station
Clear Clear  
Wind Chill:   Ceiling: Unl
Heat Index:   Visibility: 10mi
Dew Point:   Wind: 3mph
Humidity: 76%   Direction: 310°NW
Pressure: 30.26"   Gusts: NA
Location:  42.351°N, 92.4663°W
Report Text: KALO 210154Z 31003KT 10SM CLR M13/M17 A3026 RMK AO2 SLP267 T11331167
Loading
Personal Weather Stations






























Interactive Weather Map New forecast layout! Learn more

10-Day Weather Forecast

Advertisements
Track Severe Weather on mobile